Time;durP1;ratioP1;P1;durP2;ratioP2;P2;SDS_P1;SDS_P2;PMS_P1;PMS_P2;Temp;Humidity;BMP_temperature;BMP_pressure;BME280_temperature;BME280_humidity;BME280_pressure;Samples;Min_cycle;Max_cycle;Signal;HPM_P1;HPM_P2
2022/07/11 00:02:13;;;;;;;0.90;0.40;;;25.40;46.50;;;;;;5010721;28;20029;-57
2022/07/11 00:04:40;;;;;;;0.93;0.60;;;25.50;46.50;;;;;;5009973;28;20026;-55
2022/07/11 00:07:06;;;;;;;0.88;0.50;;;25.50;46.50;;;;;;5009453;28;20096;-56
2022/07/11 00:09:32;;;;;;;0.65;0.47;;;25.40;46.50;;;;;;5010079;28;20427;-55
2022/07/11 00:12:00;;;;;;;2.15;0.50;;;25.40;46.50;;;;;;5009063;28;20057;-49
2022/07/11 00:14:26;;;;;;;0.20;0.20;;;25.40;46.50;;;;;;5014357;28;20048;-56
2022/07/11 00:16:53;;;;;;;0.50;0.40;;;25.40;46.50;;;;;;5013855;28;20030;-55
2022/07/11 00:19:22;;;;;;;1.08;0.60;;;25.40;46.60;;;;;;5013444;28;20030;-58
2022/07/11 00:21:49;;;;;;;1.35;0.60;;;25.40;46.60;;;;;;5014944;28;20041;-53
2022/07/11 00:24:17;;;;;;;0.52;0.47;;;25.40;46.70;;;;;;5013479;28;20353;-52
2022/07/11 00:26:43;;;;;;;0.88;0.50;;;25.40;46.60;;;;;;5012406;28;20038;-56
2022/07/11 00:29:09;;;;;;;1.83;0.70;;;25.40;46.60;;;;;;5013527;28;20353;-55
2022/07/11 00:31:35;;;;;;;0.77;0.50;;;25.40;46.60;;;;;;5013239;28;20021;-55
2022/07/11 00:34:01;;;;;;;0.85;0.45;;;25.40;46.60;;;;;;5013538;28;20349;-52
2022/07/11 00:36:27;;;;;;;1.13;0.50;;;25.40;46.70;;;;;;5013454;28;20026;-51
2022/07/11 00:38:53;;;;;;;0.77;0.43;;;25.40;46.70;;;;;;5012617;28;20087;-48
2022/07/11 00:41:19;;;;;;;0.77;0.60;;;25.40;46.70;;;;;;5013373;28;20034;-48
2022/07/11 00:43:52;;;;;;;1.27;0.60;;;25.40;46.70;;;;;;5013151;28;20034;-54
2022/07/11 00:46:18;;;;;;;0.82;0.60;;;25.40;46.80;;;;;;5013926;28;20060;-56
2022/07/11 00:48:43;;;;;;;0.98;0.55;;;25.40;46.80;;;;;;5011233;28;20046;-53
2022/07/11 00:51:09;;;;;;;0.77;0.50;;;25.40;46.80;;;;;;5011612;28;20705;-53
2022/07/11 00:53:36;;;;;;;0.95;0.52;;;25.40;46.80;;;;;;5013268;28;20021;-52
2022/07/11 00:56:02;;;;;;;0.75;0.50;;;25.40;46.90;;;;;;5013243;28;20041;-49
2022/07/11 00:58:28;;;;;;;1.27;0.60;;;25.40;46.90;;;;;;5012371;28;20361;-57
2022/07/11 01:00:56;;;;;;;0.85;0.50;;;25.40;46.90;;;;;;5012978;28;20022;-57
2022/07/11 01:03:22;;;;;;;1.67;0.60;;;25.40;46.90;;;;;;5009280;28;20140;-52
2022/07/11 01:05:48;;;;;;;1.25;0.50;;;25.40;46.90;;;;;;5013788;28;20128;-59
2022/07/11 01:08:14;;;;;;;1.42;0.60;;;25.40;46.90;;;;;;5012114;28;20041;-54
2022/07/11 01:10:40;;;;;;;2.67;0.50;;;25.40;47.00;;;;;;5012848;28;20437;-51
2022/07/11 01:13:07;;;;;;;0.45;0.40;;;25.40;47.00;;;;;;5012849;28;20107;-56
2022/07/11 01:15:35;;;;;;;0.88;0.45;;;25.40;47.00;;;;;;5010703;28;20033;-56
2022/07/11 01:18:02;;;;;;;0.57;0.45;;;25.40;47.00;;;;;;5011732;28;20034;-55
2022/07/11 01:20:28;;;;;;;1.13;0.50;;;25.40;47.00;;;;;;5011869;28;20049;-55
2022/07/11 01:22:56;;;;;;;1.15;0.52;;;25.40;47.00;;;;;;5012271;28;20030;-57
2022/07/11 01:25:31;;;;;;;1.15;0.60;;;25.40;47.00;;;;;;5012453;28;20030;-55
2022/07/11 01:28:01;;;;;;;0.77;0.50;;;25.40;47.10;;;;;;5011810;28;20123;-59
2022/07/11 01:30:28;;;;;;;1.27;0.60;;;25.40;47.10;;;;;;5012217;28;20116;-57
2022/07/11 01:32:55;;;;;;;1.02;0.43;;;25.40;47.10;;;;;;5011890;28;20034;-52
2022/07/11 01:35:21;;;;;;;1.13;0.60;;;25.30;47.00;;;;;;5010707;28;20365;-58
2022/07/11 01:37:48;;;;;;;0.85;0.50;;;25.30;47.00;;;;;;5009355;28;20048;-57
2022/07/11 01:40:14;;;;;;;2.35;0.65;;;25.30;47.00;;;;;;5011314;28;20033;-56
2022/07/11 01:42:40;;;;;;;0.88;0.40;;;25.40;47.10;;;;;;5011925;28;20433;-55
2022/07/11 01:45:07;;;;;;;0.63;0.40;;;25.40;47.10;;;;;;5011333;28;20049;-54
2022/07/11 01:47:32;;;;;;;0.40;0.30;;;25.30;47.10;;;;;;5010733;28;20132;-55
2022/07/11 01:49:58;;;;;;;0.85;0.40;;;25.30;47.10;;;;;;5012406;28;20105;-54
2022/07/11 01:52:24;;;;;;;0.63;0.40;;;25.30;47.10;;;;;;5011012;28;20043;-57
2022/07/11 01:54:50;;;;;;;1.45;0.60;;;25.30;47.10;;;;;;5012835;28;20041;-53
2022/07/11 01:57:16;;;;;;;0.57;0.40;;;25.30;47.10;;;;;;5011578;28;20034;-53
2022/07/11 01:59:42;;;;;;;0.93;0.40;;;25.30;47.10;;;;;;5012384;28;20033;-54
2022/07/11 02:02:08;;;;;;;0.50;0.35;;;25.30;47.10;;;;;;5011510;28;20038;-49
2022/07/11 02:04:33;;;;;;;0.60;0.30;;;25.30;47.10;;;;;;5011330;28;20115;-54
2022/07/11 02:06:59;;;;;;;1.00;0.50;;;25.30;47.10;;;;;;5010126;28;20045;-55
2022/07/11 02:09:25;;;;;;;2.30;0.30;;;25.30;47.10;;;;;;5010190;28;20026;-58
2022/07/11 02:11:51;;;;;;;1.08;0.40;;;25.30;47.10;;;;;;5011206;28;20033;-49
2022/07/11 02:14:17;;;;;;;0.43;0.25;;;25.30;47.10;;;;;;5011751;28;20037;-51
2022/07/11 02:16:43;;;;;;;1.35;0.50;;;25.30;47.10;;;;;;5011056;28;20126;-54
2022/07/11 02:19:10;;;;;;;0.35;0.20;;;25.30;47.10;;;;;;5011786;28;20072;-55
2022/07/11 02:21:37;;;;;;;1.48;0.40;;;25.30;47.10;;;;;;5011423;28;20092;-52
2022/07/11 02:24:03;;;;;;;0.75;0.40;;;25.30;47.10;;;;;;5010406;28;20030;-50
2022/07/11 02:26:29;;;;;;;0.77;0.30;;;25.30;47.10;;;;;;5011069;28;20038;-55
2022/07/11 02:28:55;;;;;;;0.65;0.28;;;25.30;47.10;;;;;;5010154;28;20041;-53
2022/07/11 02:31:21;;;;;;;1.33;0.30;;;25.30;47.20;;;;;;5009999;28;20041;-52
2022/07/11 02:33:47;;;;;;;1.48;0.32;;;25.30;47.10;;;;;;5010082;28;20385;-56
2022/07/11 02:36:12;;;;;;;1.45;0.40;;;25.30;47.20;;;;;;5010879;28;20033;-54
2022/07/11 02:38:39;;;;;;;0.90;0.43;;;25.30;47.10;;;;;;5007801;28;20022;-51
2022/07/11 02:41:05;;;;;;;0.82;0.25;;;25.30;47.10;;;;;;5011743;28;20675;-51
2022/07/11 02:43:30;;;;;;;0.40;0.28;;;25.30;47.10;;;;;;5011002;28;20109;-50
2022/07/11 02:45:56;;;;;;;0.90;0.20;;;25.30;47.20;;;;;;5010097;28;20073;-54
2022/07/11 02:48:22;;;;;;;0.63;0.30;;;25.30;47.20;;;;;;5011020;28;20042;-49
2022/07/11 02:50:48;;;;;;;0.22;0.22;;;25.30;47.20;;;;;;5011036;28;20026;-53
2022/07/11 02:53:14;;;;;;;1.65;0.40;;;25.30;47.20;;;;;;5009896;28;20083;-51
2022/07/11 02:55:40;;;;;;;0.22;0.20;;;25.30;47.20;;;;;;5008415;28;20037;-49
2022/07/11 02:58:06;;;;;;;1.10;0.30;;;25.30;47.20;;;;;;5008996;28;20026;-52
2022/07/11 03:00:33;;;;;;;0.75;0.20;;;25.30;47.20;;;;;;5010283;28;20029;-52
2022/07/11 03:02:59;;;;;;;0.63;0.30;;;25.30;47.30;;;;;;5010561;28;20076;-55
2022/07/11 03:05:24;;;;;;;1.08;0.40;;;25.30;47.30;;;;;;5010156;28;20025;-52
2022/07/11 03:07:50;;;;;;;0.70;0.30;;;25.30;47.30;;;;;;5010174;28;20033;-50
2022/07/11 03:10:16;;;;;;;0.50;0.22;;;25.30;47.30;;;;;;5011154;28;20032;-55
2022/07/11 03:12:43;;;;;;;0.40;0.30;;;25.30;47.30;;;;;;5010582;28;20096;-50
2022/07/11 03:15:09;;;;;;;0.95;0.38;;;25.20;47.30;;;;;;5009555;28;20029;-57
2022/07/11 03:17:35;;;;;;;0.60;0.30;;;25.30;47.40;;;;;;4997776;28;20319;-50
2022/07/11 03:20:02;;;;;;;0.30;0.20;;;25.20;47.30;;;;;;5009951;28;20088;-55
2022/07/11 03:22:28;;;;;;;0.57;0.28;;;25.20;47.30;;;;;;5009851;28;20076;-55
2022/07/11 03:24:55;;;;;;;0.95;0.30;;;25.20;47.30;;;;;;5010796;28;20033;-55
2022/07/11 03:27:21;;;;;;;1.05;0.32;;;25.30;47.50;;;;;;5007966;28;20041;-55
2022/07/11 03:29:47;;;;;;;0.88;0.22;;;25.30;47.50;;;;;;5009492;28;20037;-56
2022/07/11 03:32:13;;;;;;;0.25;0.20;;;25.20;47.40;;;;;;5009235;28;20552;-57
2022/07/11 03:34:40;;;;;;;0.60;0.30;;;25.20;47.50;;;;;;5010164;28;20037;-54
2022/07/11 03:37:06;;;;;;;0.50;0.30;;;25.20;47.50;;;;;;5010605;28;20066;-51
2022/07/11 03:39:32;;;;;;;0.40;0.20;;;25.20;47.50;;;;;;5011646;28;20052;-51
2022/07/11 03:41:58;;;;;;;1.42;0.30;;;25.20;47.50;;;;;;5009608;28;20026;-50
2022/07/11 03:44:24;;;;;;;0.50;0.30;;;25.20;47.60;;;;;;5009903;28;20026;-47
2022/07/11 03:46:50;;;;;;;0.17;0.17;;;25.20;47.60;;;;;;5008576;28;20050;-54
2022/07/11 03:49:16;;;;;;;0.40;0.20;;;25.20;47.60;;;;;;5015319;28;20017;-55
2022/07/11 03:51:42;;;;;;;0.60;0.30;;;25.20;47.60;;;;;;5012449;28;20045;-51
2022/07/11 03:54:08;;;;;;;0.30;0.22;;;25.20;47.60;;;;;;5015246;28;20048;-52
2022/07/11 03:56:34;;;;;;;0.10;0.10;;;25.20;47.60;;;;;;5013313;28;20022;-56
2022/07/11 03:58:59;;;;;;;0.75;0.20;;;25.20;47.70;;;;;;5013102;28;20026;-49
2022/07/11 04:01:26;;;;;;;0.15;0.10;;;25.20;47.70;;;;;;5014155;28;20449;-57
2022/07/11 04:03:51;;;;;;;0.40;0.30;;;25.20;47.70;;;;;;5013702;28;20037;-54
2022/07/11 04:06:17;;;;;;;0.65;0.30;;;25.20;47.70;;;;;;5013940;28;20049;-52
2022/07/11 04:08:43;;;;;;;0.40;0.20;;;25.20;47.70;;;;;;5011368;28;20049;-55
2022/07/11 04:11:10;;;;;;;0.30;0.20;;;25.20;47.70;;;;;;5013820;28;20029;-54
2022/07/11 04:13:36;;;;;;;0.40;0.20;;;25.20;47.70;;;;;;5013409;28;20091;-54
2022/07/11 04:16:01;;;;;;;0.15;0.15;;;25.20;47.70;;;;;;5014125;28;20025;-56
2022/07/11 04:18:28;;;;;;;0.63;0.25;;;25.20;47.70;;;;;;5013678;28;20472;-54
2022/07/11 04:20:54;;;;;;;0.40;0.20;;;25.20;47.70;;;;;;5011739;28;20029;-52
2022/07/11 04:23:20;;;;;;;0.60;0.20;;;25.20;47.80;;;;;;5012874;28;20102;-53
2022/07/11 04:25:46;;;;;;;0.30;0.25;;;25.10;47.70;;;;;;5013389;28;20053;-53
2022/07/11 04:28:11;;;;;;;0.63;0.32;;;25.20;47.90;;;;;;5012553;28;20068;-54
2022/07/11 04:30:37;;;;;;;0.30;0.25;;;25.20;47.80;;;;;;5013473;28;20022;-53
2022/07/11 04:33:03;;;;;;;0.10;0.10;;;25.20;47.90;;;;;;5013419;28;20044;-48
2022/07/11 04:35:30;;;;;;;0.25;0.20;;;25.10;47.80;;;;;;5014167;28;20026;-56
2022/07/11 04:37:57;;;;;;;0.70;0.30;;;25.10;47.80;;;;;;5013130;28;20025;-50
2022/07/11 04:40:23;;;;;;;0.30;0.25;;;25.20;47.90;;;;;;5011605;28;20109;-52
2022/07/11 04:42:52;;;;;;;0.38;0.20;;;25.10;47.90;;;;;;5013194;28;20038;-53
2022/07/11 04:45:19;;;;;;;0.60;0.20;;;25.10;47.90;;;;;;5012601;28;20428;-50
2022/07/11 04:47:44;;;;;;;0.40;0.20;;;25.10;47.90;;;;;;5013071;28;20077;-54
2022/07/11 04:50:10;;;;;;;0.30;0.20;;;25.10;47.90;;;;;;5013285;28;20381;-53
2022/07/11 04:52:37;;;;;;;0.20;0.20;;;25.10;48.00;;;;;;5013149;28;20040;-55
2022/07/11 04:55:03;;;;;;;0.30;0.20;;;25.10;48.00;;;;;;5013590;28;20025;-53
2022/07/11 04:57:29;;;;;;;0.60;0.30;;;25.10;48.00;;;;;;5012224;28;20022;-51
2022/07/11 04:59:55;;;;;;;0.40;0.20;;;25.10;48.10;;;;;;5012308;28;20026;-55
2022/07/11 05:02:21;;;;;;;0.20;0.20;;;25.10;48.10;;;;;;5012233;28;20113;-56
2022/07/11 05:04:47;;;;;;;0.63;0.20;;;25.10;48.10;;;;;;5013675;28;20084;-50
2022/07/11 05:07:13;;;;;;;0.20;0.20;;;25.10;48.10;;;;;;5012318;28;20140;-50
2022/07/11 05:09:39;;;;;;;1.23;0.40;;;25.10;48.20;;;;;;5013181;28;20048;-58
2022/07/11 05:12:06;;;;;;;0.30;0.20;;;25.10;48.20;;;;;;5011076;28;20057;-57
2022/07/11 05:14:32;;;;;;;0.20;0.20;;;25.10;48.20;;;;;;5013485;28;20088;-55
2022/07/11 05:16:58;;;;;;;0.10;0.10;;;25.10;48.20;;;;;;5011297;28;20353;-53
2022/07/11 05:19:24;;;;;;;0.25;0.20;;;25.10;48.30;;;;;;5013577;28;20037;-54
2022/07/11 05:21:49;;;;;;;0.20;0.20;;;25.10;48.30;;;;;;5011371;28;20049;-55
2022/07/11 05:24:17;;;;;;;0.28;0.10;;;25.10;48.30;;;;;;5012730;28;20068;-59
2022/07/11 05:26:44;;;;;;;0.20;0.20;;;25.10;48.40;;;;;;5011734;28;20125;-54
2022/07/11 05:29:10;;;;;;;0.20;0.20;;;25.10;48.40;;;;;;5012331;28;20034;-55
2022/07/11 05:31:36;;;;;;;0.45;0.20;;;25.10;48.40;;;;;;5012877;28;20105;-55
2022/07/11 05:34:02;;;;;;;0.45;0.20;;;25.10;48.40;;;;;;5012917;28;20022;-53
2022/07/11 05:36:28;;;;;;;0.10;0.10;;;25.10;48.50;;;;;;5010456;28;20107;-57
2022/07/11 05:38:54;;;;;;;0.17;0.17;;;25.10;48.40;;;;;;5011022;28;20040;-48
2022/07/11 05:41:20;;;;;;;0.45;0.15;;;25.10;48.40;;;;;;5012887;28;20026;-59
2022/07/11 05:43:46;;;;;;;0.15;0.10;;;25.10;48.40;;;;;;5009438;28;20025;-54
2022/07/11 05:46:11;;;;;;;0.38;0.10;;;25.10;48.40;;;;;;5011533;28;20107;-55
2022/07/11 05:48:37;;;;;;;0.10;0.10;;;25.10;48.40;;;;;;5011201;28;20038;-54
2022/07/11 05:51:03;;;;;;;1.27;0.20;;;25.10;48.50;;;;;;5011493;28;20072;-54
2022/07/11 05:53:29;;;;;;;0.95;0.30;;;25.10;48.50;;;;;;5010894;28;20029;-53
2022/07/11 05:55:55;;;;;;;0.38;0.20;;;25.10;48.50;;;;;;5012236;28;20437;-55
2022/07/11 05:58:21;;;;;;;0.40;0.20;;;25.10;48.60;;;;;;5010805;28;20025;-55
2022/07/11 06:00:47;;;;;;;0.45;0.30;;;25.10;49.30;;;;;;5012360;28;20441;-54
2022/07/11 06:03:12;;;;;;;0.43;0.20;;;25.10;48.70;;;;;;5011789;28;20029;-51
2022/07/11 06:05:38;;;;;;;0.38;0.20;;;25.10;48.70;;;;;;5010969;28;20065;-55
2022/07/11 06:10:56;;;;;;;0.75;0.30;;;25.10;48.80;;;;;;5011654;28;20034;-50
2022/07/11 06:13:22;;;;;;;0.70;0.20;;;25.10;48.80;;;;;;5011058;28;20088;-51
2022/07/11 06:15:48;;;;;;;0.28;0.28;;;25.10;48.80;;;;;;5011326;28;20037;-56
2022/07/11 06:18:14;;;;;;;0.57;0.30;;;25.10;48.90;;;;;;5011634;28;20041;-51
2022/07/11 06:20:40;;;;;;;1.30;0.50;;;25.10;48.90;;;;;;5010832;28;20080;-54
2022/07/11 06:23:12;;;;;;;0.32;0.30;;;25.10;48.90;;;;;;5007895;28;20080;-51
2022/07/11 06:25:38;;;;;;;0.45;0.35;;;25.10;48.90;;;;;;5011098;28;20042;-56
2022/07/11 06:28:04;;;;;;;0.73;0.40;;;25.10;49.00;;;;;;5011484;28;20022;-57
2022/07/11 06:30:31;;;;;;;0.50;0.30;;;25.10;49.00;;;;;;5009572;28;20044;-48
2022/07/11 06:32:57;;;;;;;0.57;0.20;;;25.10;49.10;;;;;;5009358;28;20068;-54
2022/07/11 06:35:23;;;;;;;1.00;0.50;;;25.10;49.10;;;;;;5010155;28;20397;-51
2022/07/11 06:37:49;;;;;;;0.75;0.35;;;25.10;49.10;;;;;;5009942;28;20105;-52
2022/07/11 06:40:17;;;;;;;0.50;0.30;;;25.10;49.20;;;;;;5010976;28;20117;-54
2022/07/11 06:42:43;;;;;;;0.80;0.30;;;25.10;49.20;;;;;;5010496;28;20108;-53
2022/07/11 06:45:10;;;;;;;0.40;0.30;;;25.20;49.30;;;;;;5012784;28;20030;-55
2022/07/11 06:47:36;;;;;;;0.57;0.40;;;25.10;49.20;;;;;;5009892;28;20160;-50
2022/07/11 06:50:02;;;;;;;0.65;0.40;;;25.10;49.30;;;;;;5010310;28;20109;-55
2022/07/11 06:52:28;;;;;;;0.93;0.50;;;25.20;49.40;;;;;;5007310;28;20045;-53
2022/07/11 06:54:54;;;;;;;0.65;0.50;;;25.10;49.40;;;;;;5011004;28;20038;-52
2022/07/11 06:57:20;;;;;;;2.60;0.65;;;25.10;49.40;;;;;;5010320;28;20126;-54
2022/07/11 06:59:47;;;;;;;0.88;0.52;;;25.20;49.50;;;;;;5010760;28;20058;-52
2022/07/11 07:02:12;;;;;;;0.80;0.38;;;25.20;49.50;;;;;;5015963;28;20369;-55
2022/07/11 07:04:38;;;;;;;1.30;0.40;;;25.20;49.50;;;;;;5014802;28;20061;-53
2022/07/11 07:07:04;;;;;;;0.85;0.40;;;25.20;49.60;;;;;;5010121;28;20484;-51
2022/07/11 07:09:30;;;;;;;2.25;0.60;;;25.20;49.60;;;;;;5014140;28;20033;-57
2022/07/11 07:11:56;;;;;;;0.82;0.45;;;25.20;49.60;;;;;;5013963;28;20197;-54
2022/07/11 07:14:22;;;;;;;0.82;0.50;;;25.20;49.70;;;;;;5007593;28;20355;-51
2022/07/11 07:16:48;;;;;;;1.40;0.50;;;25.20;49.70;;;;;;5010618;28;20030;-53
2022/07/11 07:19:14;;;;;;;2.28;0.65;;;25.20;49.80;;;;;;5011075;28;20404;-53
2022/07/11 07:21:40;;;;;;;1.55;0.40;;;25.20;49.80;;;;;;5009366;28;20429;-54
2022/07/11 07:24:06;;;;;;;0.85;0.45;;;25.20;49.90;;;;;;5009757;28;20084;-54
2022/07/11 07:26:32;;;;;;;0.70;0.40;;;25.20;49.90;;;;;;5010357;28;20116;-54
2022/07/11 07:28:58;;;;;;;0.77;0.35;;;25.20;49.90;;;;;;5005308;28;20034;-55
2022/07/11 07:31:24;;;;;;;0.57;0.35;;;25.30;50.00;;;;;;5008308;28;20029;-58
2022/07/11 07:33:51;;;;;;;0.77;0.40;;;25.20;50.00;;;;;;5008553;28;20062;-56
2022/07/11 07:36:17;;;;;;;1.00;0.50;;;25.30;50.20;;;;;;5013592;28;20030;-54
2022/07/11 07:38:46;;;;;;;0.43;0.25;;;25.30;50.20;;;;;;5013675;28;20037;-52
2022/07/11 07:41:15;;;;;;;1.48;0.50;;;25.20;50.20;;;;;;5014174;28;20030;-54
2022/07/11 07:43:42;;;;;;;1.38;0.40;;;25.30;50.30;;;;;;5004493;28;20066;-54
2022/07/11 07:46:09;;;;;;;2.17;0.60;;;25.30;50.30;;;;;;5003670;28;20468;-56
2022/07/11 07:48:35;;;;;;;1.90;0.82;;;25.30;50.40;;;;;;5012080;28;20119;-57
2022/07/11 07:51:01;;;;;;;0.50;0.30;;;25.30;50.40;;;;;;5014801;28;20038;-53
2022/07/11 07:53:27;;;;;;;0.95;0.50;;;25.30;50.50;;;;;;5012589;28;20404;-55
2022/07/11 07:55:53;;;;;;;0.80;0.50;;;25.30;50.50;;;;;;5019330;28;20360;-54
2022/07/11 07:58:19;;;;;;;0.80;0.40;;;25.30;50.50;;;;;;5010864;28;20117;-59
2022/07/11 08:03:29;;;;;;;0.85;0.30;;;25.30;50.60;;;;;;5008667;28;20036;-52
2022/07/11 08:05:55;;;;;;;1.83;0.52;;;25.30;50.60;;;;;;5010580;28;20034;-52
2022/07/11 08:08:21;;;;;;;1.30;0.60;;;25.30;50.60;;;;;;5007940;28;20030;-58
2022/07/11 08:10:46;;;;;;;1.60;0.60;;;25.30;50.60;;;;;;5010233;28;20041;-55
2022/07/11 08:13:12;;;;;;;1.13;0.45;;;25.30;50.60;;;;;;5006530;28;20034;-54
2022/07/11 08:15:38;;;;;;;1.10;0.50;;;25.30;50.60;;;;;;5011613;28;20064;-58
2022/07/11 08:18:07;;;;;;;0.50;0.30;;;25.40;50.70;;;;;;5009327;28;20109;-59
2022/07/11 08:20:33;;;;;;;1.35;0.50;;;25.30;50.60;;;;;;5009994;28;20712;-56
2022/07/11 08:23:06;;;;;;;0.50;0.40;;;25.30;50.60;;;;;;5011030;28;20225;-53
2022/07/11 08:25:32;;;;;;;0.90;0.57;;;25.40;50.70;;;;;;5009852;28;20392;-54
2022/07/11 08:27:58;;;;;;;0.60;0.35;;;25.40;50.70;;;;;;5014785;28;20042;-57
2022/07/11 08:30:25;;;;;;;0.52;0.40;;;25.30;50.60;;;;;;5014355;28;20052;-56
2022/07/11 08:32:51;;;;;;;1.60;0.50;;;25.40;50.60;;;;;;4997649;28;20045;-57
2022/07/11 08:35:17;;;;;;;0.43;0.30;;;25.40;50.60;;;;;;5012090;28;20022;-54
2022/07/11 08:37:43;;;;;;;0.30;0.30;;;25.30;50.50;;;;;;5001215;28;20123;-49
2022/07/11 08:40:10;;;;;;;2.72;1.33;;;25.40;50.50;;;;;;5018482;28;20026;-56
2022/07/11 08:42:45;;;;;;;7.85;2.70;;;25.30;50.40;;;;;;5018783;28;20034;-52
2022/07/11 08:45:12;;;;;;;8.13;2.88;;;25.40;50.50;;;;;;5017414;28;20076;-54
2022/07/11 08:47:39;;;;;;;6.43;2.17;;;25.40;50.50;;;;;;5018056;28;20053;-57
2022/07/11 08:50:06;;;;;;;6.82;2.65;;;25.40;50.40;;;;;;5018373;28;20034;-53
2022/07/11 08:52:33;;;;;;;5.20;2.30;;;25.40;50.40;;;;;;5018273;28;20040;-55
2022/07/11 08:54:59;;;;;;;4.47;2.15;;;25.40;50.40;;;;;;5016611;28;20459;-51
2022/07/11 08:57:25;;;;;;;5.20;2.03;;;25.40;50.30;;;;;;5018106;28;20057;-58
2022/07/11 08:59:55;;;;;;;4.68;2.03;;;25.40;50.20;;;;;;5016456;28;20022;-56
2022/07/11 09:02:22;;;;;;;5.45;2.67;;;25.40;50.20;;;;;;5009713;28;20037;-55
2022/07/11 09:04:48;;;;;;;6.05;2.10;;;25.40;50.20;;;;;;5014859;28;20033;-55
2022/07/11 09:07:14;;;;;;;3.40;1.20;;;25.40;50.20;;;;;;5017546;28;20044;-53
2022/07/11 09:09:40;;;;;;;5.07;1.65;;;25.40;50.10;;;;;;5017603;28;20038;-54
2022/07/11 09:12:15;;;;;;;3.00;1.40;;;25.40;50.10;;;;;;5017950;28;20114;-56
2022/07/11 09:14:47;;;;;;;2.03;0.93;;;25.40;50.10;;;;;;5017522;28;20033;-56
2022/07/11 09:17:13;;;;;;;2.75;1.20;;;25.40;50.00;;;;;;5016346;28;20468;-56
2022/07/11 09:19:39;;;;;;;2.22;1.30;;;25.40;50.00;;;;;;5017614;28;20041;-52
2022/07/11 09:25:29;;;;;;;2.30;1.00;;;25.40;50.00;;;;;;5017971;28;20030;-54
2022/07/11 09:28:06;;;;;;;1.85;0.80;;;25.40;50.60;;;;;;5017496;28;20483;-58
2022/07/11 09:30:43;;;;;;;1.38;0.82;;;25.40;50.00;;;;;;5016948;28;20104;-55
2022/07/11 09:33:12;;;;;;;1.35;0.90;;;25.40;50.00;;;;;;5016444;28;20046;-56
2022/07/11 09:35:41;;;;;;;0.95;0.50;;;25.40;50.00;;;;;;5017077;28;20044;-52
2022/07/11 09:38:11;;;;;;;1.48;0.60;;;25.40;49.90;;;;;;5016628;28;20026;-55
2022/07/11 09:40:38;;;;;;;2.03;0.70;;;25.40;49.90;;;;;;5016673;28;20057;-53
2022/07/11 09:43:04;;;;;;;1.23;0.60;;;25.40;49.90;;;;;;5017464;28;20026;-54
2022/07/11 09:45:35;;;;;;;1.38;0.55;;;25.40;49.90;;;;;;5015108;28;20057;-50
2022/07/11 09:48:08;;;;;;;1.50;0.50;;;25.40;49.90;;;;;;5016098;28;20136;-55
2022/07/11 09:50:34;;;;;;;0.70;0.40;;;25.40;49.90;;;;;;5017316;28;20030;-57
2022/07/11 09:53:00;;;;;;;0.95;0.40;;;25.40;49.90;;;;;;5018513;28;20033;-58
2022/07/11 09:55:26;;;;;;;0.95;0.50;;;25.40;49.90;;;;;;5037171;28;20116;-51
2022/07/11 09:57:52;;;;;;;0.80;0.50;;;25.40;49.90;;;;;;5037256;28;20017;-55
2022/07/11 10:00:18;;;;;;;1.10;0.40;;;25.40;49.90;;;;;;5037019;28;20048;-53
2022/07/11 10:02:45;;;;;;;1.27;0.70;;;25.40;49.90;;;;;;5017732;28;20437;-57
2022/07/11 10:05:12;;;;;;;1.42;0.40;;;25.40;49.80;;;;;;5016802;28;20119;-54
2022/07/11 10:07:38;;;;;;;0.98;0.50;;;25.40;49.80;;;;;;5016752;28;20053;-55
2022/07/11 10:10:06;;;;;;;0.60;0.40;;;25.40;49.80;;;;;;5016182;28;20349;-56
2022/07/11 10:12:32;;;;;;;0.98;0.40;;;25.40;49.80;;;;;;5012900;28;20398;-54
2022/07/11 10:15:01;;;;;;;0.40;0.38;;;25.40;49.80;;;;;;5015727;28;20046;-56
2022/07/11 10:17:46;;;;;;;0.40;0.40;;;25.50;49.90;;;;;;5016967;28;20362;-56
2022/07/11 10:20:30;;;;;;;2.72;0.30;;;25.50;49.80;;;;;;5014361;28;22343;-59
2022/07/11 10:23:24;;;;;;;0.65;0.47;;;25.50;49.80;;;;;;5009407;28;20022;-56
2022/07/11 10:25:58;;;;;;;0.93;0.20;;;25.50;49.90;;;;;;5009428;28;20041;-56
2022/07/11 10:28:36;;;;;;;0.17;0.15;;;25.50;49.90;;;;;;5012403;28;20103;-57
2022/07/11 10:31:17;;;;;;;0.60;0.30;;;25.50;50.00;;;;;;5016330;28;20026;-57
2022/07/11 10:34:02;;;;;;;0.75;0.30;;;25.50;50.00;;;;;;5013271;28;20036;-62
2022/07/11 10:36:34;;;;;;;0.40;0.25;;;25.60;50.00;;;;;;4996683;28;20064;-56
2022/07/11 10:39:18;;;;;;;1.70;0.50;;;25.60;50.00;;;;;;4995979;28;20034;-58
2022/07/11 10:41:51;;;;;;;1.75;0.30;;;25.60;50.00;;;;;;4996898;28;20061;-58
2022/07/11 10:44:29;;;;;;;0.22;0.20;;;25.60;50.00;;;;;;5015480;28;20069;-54
2022/07/11 10:46:58;;;;;;;0.93;0.20;;;25.60;50.00;;;;;;5015623;28;20033;-54
2022/07/11 10:49:49;;;;;;;0.52;0.30;;;25.70;50.00;;;;;;5014422;28;20515;-57
2022/07/11 10:52:23;;;;;;;0.73;0.28;;;25.70;49.90;;;;;;4996310;28;20057;-59
2022/07/11 10:55:21;;;;;;;0.57;0.32;;;25.70;49.90;;;;;;5009825;28;20357;-55
2022/07/11 10:58:11;;;;;;;2.90;0.40;;;25.80;49.90;;;;;;5009877;28;20456;-60
2022/07/11 11:00:41;;;;;;;0.32;0.20;;;25.80;50.00;;;;;;5014356;28;20420;-56
2022/07/11 11:03:14;;;;;;;0.70;0.35;;;25.80;49.90;;;;;;5016784;28;20084;-60
2022/07/11 11:05:43;;;;;;;2.55;0.45;;;25.90;50.10;;;;;;5013573;28;20033;-58
2022/07/11 11:11:22;;;;;;;0.52;0.20;;;26.00;50.10;;;;;;5015628;28;20022;-55
2022/07/11 11:14:19;;;;;;;0.38;0.30;;;26.00;50.00;;;;;;5014141;28;20045;-56
2022/07/11 11:16:47;;;;;;;0.93;0.30;;;26.10;50.00;;;;;;4999259;28;20053;-58
2022/07/11 11:19:44;;;;;;;2.25;0.40;;;26.10;50.00;;;;;;5014513;28;20040;-60
2022/07/11 11:22:28;;;;;;;0.30;0.30;;;26.10;49.90;;;;;;5014066;28;20037;-58
2022/07/11 11:24:57;;;;;;;0.30;0.20;;;26.10;49.70;;;;;;5011781;28;20034;-57
2022/07/11 11:27:30;;;;;;;0.55;0.25;;;26.10;49.70;;;;;;5014391;28;20045;-52
2022/07/11 11:30:01;;;;;;;2.35;0.55;;;26.10;49.60;;;;;;5015597;28;20069;-60
2022/07/11 11:32:36;;;;;;;6.60;0.45;;;26.20;49.70;;;;;;5014536;28;20365;-58
2022/07/11 11:35:08;;;;;;;0.30;0.30;;;26.20;49.60;;;;;;5013905;28;20041;-56
2022/07/11 11:37:38;;;;;;;0.20;0.20;;;26.20;49.60;;;;;;5013435;28;20120;-54
2022/07/11 11:40:17;;;;;;;0.52;0.25;;;26.20;49.50;;;;;;5015056;28;20116;-56
2022/07/11 11:42:47;;;;;;;0.40;0.20;;;26.20;49.50;;;;;;5014973;28;20476;-54
2022/07/11 11:45:20;;;;;;;0.17;0.10;;;26.20;49.50;;;;;;5015562;28;20029;-55
2022/07/11 11:47:55;;;;;;;0.20;0.20;;;26.20;49.40;;;;;;5014306;28;20058;-52
2022/07/11 11:50:27;;;;;;;0.55;0.20;;;26.20;49.40;;;;;;5014138;28;20030;-55
2022/07/11 11:52:59;;;;;;;0.20;0.13;;;26.20;49.30;;;;;;5012981;28;20042;-56
2022/07/11 11:55:29;;;;;;;0.40;0.30;;;26.20;49.30;;;;;;5013518;28;20018;-56
2022/07/11 11:57:59;;;;;;;0.57;0.30;;;26.20;49.30;;;;;;5015067;28;20029;-54
2022/07/11 12:00:31;;;;;;;0.30;0.30;;;26.20;49.20;;;;;;5013761;28;20084;-54
2022/07/11 12:03:02;;;;;;;0.10;0.10;;;26.20;49.40;;;;;;5017873;28;20112;-57
2022/07/11 12:05:35;;;;;;;0.45;0.30;;;26.20;49.50;;;;;;5005767;28;20449;-54
2022/07/11 12:08:05;;;;;;;0.20;0.20;;;26.20;49.50;;;;;;4996498;28;20125;-63
2022/07/11 12:10:35;;;;;;;0.20;0.20;;;26.30;49.70;;;;;;5010130;28;20113;-54
2022/07/11 12:13:07;;;;;;;0.20;0.20;;;26.30;49.70;;;;;;5018420;28;20109;-60
2022/07/11 12:18:28;;;;;;;0.65;0.30;;;26.30;49.70;;;;;;4967634;28;20034;-55
2022/07/11 12:21:10;;;;;;;0.20;0.20;;;26.30;49.70;;;;;;5015668;28;20441;-55
2022/07/11 12:23:37;;;;;;;1.98;0.20;;;26.40;49.80;;;;;;5024722;28;20030;-57
2022/07/11 12:26:04;;;;;;;0.30;0.30;;;26.40;49.80;;;;;;5015598;28;20034;-59
2022/07/11 12:28:33;;;;;;;0.43;0.40;;;26.40;49.90;;;;;;5015722;28;20056;-59
2022/07/11 12:31:05;;;;;;;0.20;0.20;;;26.40;49.80;;;;;;5012277;28;20034;-50
2022/07/11 12:33:32;;;;;;;0.30;0.10;;;26.40;49.70;;;;;;5011818;28;20416;-55
2022/07/11 12:36:07;;;;;;;0.20;0.20;;;26.50;49.80;;;;;;5013161;28;20052;-51
2022/07/11 12:38:53;;;;;;;0.20;0.20;;;26.50;49.80;;;;;;5014094;28;20030;-49
2022/07/11 12:41:21;;;;;;;0.10;0.10;;;26.50;49.80;;;;;;5014615;28;20029;-54
2022/07/11 12:46:37;;;;;;;2.28;0.22;;;26.50;49.80;;;;;;5013746;28;20048;-58
2022/07/11 12:49:06;;;;;;;0.40;0.20;;;26.60;49.90;;;;;;5011623;28;20091;-57
2022/07/11 12:51:40;;;;;;;1.27;0.30;;;26.60;49.90;;;;;;5012416;28;20436;-57
2022/07/11 12:54:15;;;;;;;0.35;0.20;;;26.60;49.80;;;;;;5012611;28;20045;-56
2022/07/11 12:56:54;;;;;;;0.20;0.20;;;26.60;49.80;;;;;;5011705;28;20113;-60
2022/07/11 12:59:24;;;;;;;0.30;0.25;;;26.60;49.70;;;;;;5011598;28;20422;-54
2022/07/11 13:02:15;;;;;;;0.50;0.20;;;26.60;49.50;;;;;;5012752;28;20041;-59
2022/07/11 13:04:53;;;;;;;0.20;0.20;;;26.60;49.50;;;;;;5012123;28;20061;-55
2022/07/11 13:10:17;;;;;;;0.17;0.13;;;26.60;49.50;;;;;;5014000;28;20345;-52
2022/07/11 13:12:47;;;;;;;0.15;0.15;;;26.60;49.30;;;;;;5010572;28;20037;-55
2022/07/11 13:15:21;;;;;;;0.73;0.20;;;26.60;49.30;;;;;;5017706;28;20037;-57